createdAt,value
2023-05-20T00:09:12.126Z,63.10
2023-05-20T00:19:19.161Z,63.10
2023-05-20T00:29:29.493Z,66.20
2023-05-20T00:39:38.093Z,67.30
2023-05-20T00:49:49.687Z,66.00
2023-05-20T00:59:59.028Z,65.00
2023-05-20T01:10:08.936Z,65.60
2023-05-20T01:20:17.763Z,65.80
2023-05-20T01:30:26.856Z,66.30
2023-05-20T01:40:35.948Z,65.90
2023-05-20T01:50:44.485Z,65.20
2023-05-20T02:00:52.565Z,65.20
2023-05-20T02:11:01.239Z,64.50
2023-05-20T02:21:10.264Z,64.70
2023-05-20T02:31:19.937Z,64.40
2023-05-20T02:41:27.418Z,63.60
2023-05-20T02:51:36.072Z,63.90
2023-05-20T03:02:07.601Z,63.60
2023-05-20T03:12:20.032Z,63.50
2023-05-20T03:22:27.066Z,63.50
2023-05-20T03:32:36.018Z,63.30
2023-05-20T03:42:43.647Z,62.80
2023-05-20T03:52:53.355Z,62.60
2023-05-20T04:03:03.033Z,62.70
2023-05-20T04:13:18.229Z,62.90
2023-05-20T04:23:26.168Z,62.30
2023-05-20T04:33:38.799Z,62.20
2023-05-20T04:43:47.911Z,62.50
2023-05-20T04:53:57.361Z,62.60
2023-05-20T05:04:04.605Z,62.40
2023-05-20T05:14:13.181Z,62.40
2023-05-20T05:24:20.264Z,62.40
2023-05-20T05:34:28.897Z,62.10
2023-05-20T05:44:36.224Z,62.10
2023-05-20T05:54:46.986Z,61.90
2023-05-20T06:04:54.324Z,61.70
2023-05-20T06:15:02.930Z,60.70
2023-05-20T06:25:10.995Z,61.00
2023-05-20T06:35:19.694Z,60.30
2023-05-20T06:45:26.972Z,60.40
2023-05-20T06:55:38.372Z,60.40
2023-05-20T07:05:46.123Z,60.10
2023-05-20T07:15:56.019Z,60.00
2023-05-20T07:26:03.536Z,60.50
2023-05-20T07:36:12.373Z,59.60
2023-05-20T07:46:22.470Z,59.60
2023-05-20T07:56:31.576Z,59.40
2023-05-20T08:06:40.676Z,59.30
2023-05-20T08:16:54.768Z,59.10
2023-05-20T08:27:02.752Z,59.10
2023-05-20T08:37:11.488Z,59.10
2023-05-20T08:47:19.253Z,59.00
2023-05-20T08:57:28.894Z,59.00
2023-05-20T09:07:35.678Z,59.00
2023-05-20T09:17:44.117Z,59.00
2023-05-20T09:27:51.009Z,59.30
2023-05-20T09:38:00.191Z,59.30
2023-05-20T09:48:08.325Z,59.80
2023-05-20T09:58:17.169Z,59.10
2023-05-20T10:08:57.776Z,59.10
2023-05-20T10:19:14.978Z,58.90
2023-05-20T10:29:23.697Z,58.90
2023-05-20T10:39:35.127Z,58.60
2023-05-20T10:49:47.354Z,58.70
2023-05-20T10:59:56.377Z,58.60
2023-05-20T11:10:03.136Z,58.60
2023-05-20T11:20:14.491Z,58.70
2023-05-20T11:30:22.411Z,58.70
2023-05-20T11:40:38.957Z,58.80
2023-05-20T11:50:55.776Z,58.90
2023-05-20T12:01:14.083Z,58.80
2023-05-20T12:11:28.248Z,58.80
2023-05-20T12:21:36.795Z,58.80
2023-05-20T12:31:43.655Z,58.70
2023-05-20T12:41:52.267Z,58.60
2023-05-20T12:52:01.440Z,58.60
2023-05-20T13:02:11.883Z,58.30
2023-05-20T13:12:19.057Z,58.70
2023-05-20T13:22:27.585Z,58.20
2023-05-20T13:32:34.368Z,58.90
2023-05-20T13:42:43.066Z,58.30
2023-05-20T13:53:06.400Z,59.60
2023-05-20T14:03:15.008Z,59.80
2023-05-20T14:13:22.904Z,59.50
2023-05-20T14:23:31.563Z,60.00
2023-05-20T14:33:38.539Z,59.60
2023-05-20T14:43:47.201Z,59.40
2023-05-20T14:53:54.538Z,59.80
2023-05-20T15:04:03.086Z,60.60
2023-05-20T15:14:10.733Z,61.30
2023-05-20T15:24:19.936Z,61.80
2023-05-20T15:34:26.781Z,61.40
2023-05-20T15:44:40.785Z,61.50
2023-05-20T15:54:48.383Z,61.40
2023-05-20T16:17:11.425Z,61.50
2023-05-20T16:27:29.826Z,60.50
2023-05-20T16:37:38.806Z,60.20
2023-05-20T16:47:45.792Z,60.20
2023-05-20T16:57:57.180Z,60.40
2023-05-20T17:08:19.200Z,60.20
2023-05-20T17:18:27.769Z,59.20
2023-05-20T17:28:34.724Z,58.40
2023-05-20T17:38:43.218Z,57.80
2023-05-20T17:49:11.456Z,58.00
2023-05-20T17:59:26.767Z,58.80
2023-05-20T18:09:37.077Z,60.80
2023-05-20T18:19:45.691Z,61.10
2023-05-20T18:29:52.579Z,61.10
2023-05-20T18:40:01.079Z,62.40
2023-05-20T18:50:08.706Z,61.80
2023-05-20T19:00:19.066Z,62.10
2023-05-20T19:10:26.937Z,63.00
2023-05-20T19:20:37.389Z,63.50
2023-05-20T19:30:44.381Z,63.60
2023-05-20T19:40:52.908Z,65.80
2023-05-20T19:50:59.895Z,65.30
2023-05-20T20:01:09.175Z,65.40
2023-05-20T20:11:16.876Z,65.00
2023-05-20T20:21:32.695Z,64.90
2023-05-20T20:31:39.609Z,65.00
2023-05-20T20:41:51.148Z,66.80
2023-05-20T20:51:58.268Z,67.20
2023-05-20T21:02:08.073Z,68.20
2023-05-20T21:12:14.994Z,69.40
2023-05-20T21:22:23.597Z,70.90
2023-05-20T21:32:30.545Z,72.30
2023-05-20T21:42:38.968Z,73.80
2023-05-20T21:52:46.001Z,74.40
2023-05-20T22:02:55.276Z,75.50
2023-05-20T22:13:02.919Z,76.90
2023-05-20T22:23:11.501Z,76.00
2023-05-20T22:33:18.815Z,77.30
2023-05-20T22:43:27.347Z,77.30
2023-05-20T22:53:34.287Z,76.50
2023-05-20T23:03:43.319Z,75.10
2023-05-20T23:13:50.173Z,74.10
2023-05-20T23:23:58.641Z,73.60
2023-05-20T23:34:05.725Z,73.20
2023-05-20T23:44:14.302Z,72.50
2023-05-20T23:54:22.450Z,72.90
